createdAt,value
2022-09-28T00:01:08.035Z,18.80
2022-09-28T00:03:35.324Z,18.80
2022-09-28T00:06:07.847Z,18.80
2022-09-28T00:08:35.955Z,18.80
2022-09-28T00:11:04.053Z,18.80
2022-09-28T00:13:32.868Z,18.80
2022-09-28T00:16:07.902Z,18.80
2022-09-28T00:18:35.974Z,18.80
2022-09-28T00:21:14.405Z,18.80
2022-09-28T00:24:00.555Z,18.80
2022-09-28T00:26:28.358Z,18.80
2022-09-28T00:28:59.027Z,18.70
2022-09-28T00:31:26.783Z,18.70
2022-09-28T00:33:56.722Z,18.80
2022-09-28T00:36:24.665Z,18.80
2022-09-28T00:38:52.180Z,18.80
2022-09-28T00:41:18.785Z,18.80
2022-09-28T00:43:45.430Z,18.80
2022-09-28T00:46:18.815Z,18.70
2022-09-28T00:49:03.165Z,18.80
2022-09-28T00:51:31.051Z,18.80
2022-09-28T00:54:01.040Z,18.80
2022-09-28T00:56:31.085Z,18.70
2022-09-28T00:58:59.568Z,18.70
2022-09-28T01:01:27.982Z,18.80
2022-09-28T01:03:54.677Z,18.80
2022-09-28T01:06:23.807Z,18.70
2022-09-28T01:08:53.545Z,18.70
2022-09-28T01:11:20.506Z,18.70
2022-09-28T01:13:49.589Z,18.70
2022-09-28T01:16:44.679Z,18.70
2022-09-28T01:19:55.133Z,18.70
2022-09-28T01:22:53.910Z,18.70
2022-09-28T01:25:57.094Z,18.70
2022-09-28T01:28:32.620Z,18.70
2022-09-28T01:31:10.246Z,18.70
2022-09-28T01:34:02.766Z,18.70
2022-09-28T01:36:41.266Z,18.70
2022-09-28T01:39:25.809Z,18.70
2022-09-28T01:41:54.368Z,18.70
2022-09-28T01:44:22.250Z,18.70
2022-09-28T01:46:50.534Z,18.70
2022-09-28T01:49:26.738Z,18.70
2022-09-28T01:52:27.770Z,18.70
2022-09-28T01:55:09.243Z,18.70
2022-09-28T01:57:39.718Z,18.70
2022-09-28T02:00:08.357Z,18.70
2022-09-28T02:02:40.902Z,18.70
2022-09-28T02:05:14.034Z,18.70
2022-09-28T02:08:03.735Z,18.70
2022-09-28T02:10:52.810Z,18.70
2022-09-28T02:13:32.927Z,18.70
2022-09-28T02:16:05.965Z,18.70
2022-09-28T02:18:33.176Z,19.80
2022-09-28T02:21:25.580Z,18.70
2022-09-28T02:24:03.196Z,18.70
2022-09-28T02:26:34.928Z,18.70
2022-09-28T02:29:01.633Z,18.70
2022-09-28T02:31:28.497Z,18.70
2022-09-28T02:33:57.454Z,18.70
2022-09-28T02:36:26.567Z,18.70
2022-09-28T02:38:54.030Z,18.60
2022-09-28T02:41:44.849Z,18.70
2022-09-28T02:44:46.997Z,18.70
2022-09-28T02:47:32.982Z,18.60
2022-09-28T02:50:33.562Z,18.70
2022-09-28T02:53:13.964Z,18.70
2022-09-28T02:56:16.508Z,18.70
2022-09-28T02:59:18.630Z,18.70
2022-09-28T03:02:11.940Z,18.60
2022-09-28T03:05:22.422Z,18.60
2022-09-28T03:08:30.640Z,18.60
2022-09-28T03:10:59.972Z,18.60
2022-09-28T03:13:28.146Z,18.60
2022-09-28T03:16:11.389Z,18.60
2022-09-28T03:18:38.557Z,18.60
2022-09-28T03:21:05.598Z,18.60
2022-09-28T03:23:32.457Z,18.60
2022-09-28T03:25:59.430Z,18.60
2022-09-28T03:28:26.403Z,18.60
2022-09-28T03:30:53.051Z,18.60
2022-09-28T03:33:19.991Z,18.60
2022-09-28T03:35:48.136Z,18.60
2022-09-28T03:38:15.114Z,18.60
2022-09-28T03:40:41.734Z,18.60
2022-09-28T03:43:08.575Z,18.60
2022-09-28T03:45:35.230Z,18.60
2022-09-28T03:48:01.905Z,18.60
2022-09-28T03:50:28.514Z,18.60
2022-09-28T03:52:55.095Z,18.60
2022-09-28T03:55:21.684Z,18.60
2022-09-28T03:57:54.840Z,18.60
2022-09-28T04:00:21.495Z,17.00
2022-09-28T04:02:48.173Z,18.60
2022-09-28T04:05:14.830Z,18.60
2022-09-28T04:07:41.481Z,18.60
2022-09-28T04:10:08.633Z,18.60
2022-09-28T04:12:35.238Z,18.60
2022-09-28T04:15:01.930Z,18.60
2022-09-28T04:17:28.569Z,18.60
2022-09-28T04:19:55.156Z,18.60
2022-09-28T04:22:23.211Z,18.60
2022-09-28T04:24:49.817Z,18.60
2022-09-28T04:27:34.980Z,18.60
2022-09-28T04:30:01.564Z,18.60
2022-09-28T04:32:28.198Z,18.60
2022-09-28T04:34:55.798Z,18.50
2022-09-28T04:37:22.407Z,18.60
2022-09-28T04:39:48.972Z,18.50
2022-09-28T04:42:15.892Z,18.60
2022-09-28T04:44:42.567Z,18.60
2022-09-28T04:47:09.136Z,18.60
2022-09-28T04:49:54.301Z,18.50
2022-09-28T04:53:18.391Z,18.60
2022-09-28T04:55:45.158Z,18.50
2022-09-28T04:58:31.398Z,18.50
2022-09-28T05:01:01.405Z,18.60
2022-09-28T05:03:46.979Z,18.60
2022-09-28T05:06:15.723Z,18.60
2022-09-28T05:08:42.741Z,18.50
2022-09-28T05:11:12.025Z,18.60
2022-09-28T05:13:45.244Z,18.50
2022-09-28T05:16:14.026Z,18.50
2022-09-28T05:18:40.700Z,18.50
2022-09-28T05:21:16.244Z,18.50
2022-09-28T05:23:47.201Z,18.50
2022-09-28T05:26:14.741Z,18.50
2022-09-28T05:28:41.390Z,18.50
2022-09-28T05:31:08.273Z,18.60
2022-09-28T05:33:34.934Z,18.60
2022-09-28T05:36:02.100Z,18.50
2022-09-28T05:38:29.889Z,18.50
2022-09-28T05:40:56.765Z,18.50
2022-09-28T05:43:23.686Z,18.50
2022-09-28T05:45:54.504Z,18.50
2022-09-28T05:48:23.043Z,18.60
2022-09-28T05:50:52.588Z,18.60
2022-09-28T05:53:19.610Z,18.50
2022-09-28T05:55:46.350Z,18.50
2022-09-28T05:58:12.948Z,18.60
2022-09-28T06:00:39.507Z,18.50
2022-09-28T06:03:09.628Z,18.50
2022-09-28T06:05:37.384Z,18.50
2022-09-28T06:08:05.453Z,18.50
2022-09-28T06:10:33.178Z,18.50
2022-09-28T06:13:00.399Z,18.50
2022-09-28T06:15:29.482Z,18.50
2022-09-28T06:18:00.216Z,18.50
2022-09-28T06:20:28.787Z,18.40
2022-09-28T06:22:55.466Z,18.50
2022-09-28T06:25:23.440Z,18.50
2022-09-28T06:28:03.424Z,18.50
2022-09-28T06:30:33.211Z,18.50
2022-09-28T06:33:01.387Z,18.40
2022-09-28T06:35:30.638Z,18.50
2022-09-28T06:37:58.602Z,18.50
2022-09-28T06:40:25.659Z,18.50
2022-09-28T06:43:03.366Z,18.50
2022-09-28T06:45:30.775Z,18.50
2022-09-28T06:47:59.590Z,18.50
2022-09-28T06:50:29.070Z,18.50
2022-09-28T06:52:57.037Z,18.60
2022-09-28T06:55:24.474Z,18.60
2022-09-28T06:58:05.361Z,18.60
2022-09-28T07:00:36.129Z,18.60
2022-09-28T07:03:04.647Z,18.70
2022-09-28T07:05:34.853Z,18.70
2022-09-28T07:08:01.917Z,18.70
2022-09-28T07:10:30.123Z,18.70
2022-09-28T07:13:01.781Z,18.70
2022-09-28T07:15:29.439Z,18.70
2022-09-28T07:18:03.345Z,18.70
2022-09-28T07:20:41.699Z,18.80
2022-09-28T07:23:19.673Z,18.70
2022-09-28T07:25:47.701Z,18.70
2022-09-28T07:28:14.698Z,18.80
2022-09-28T07:30:42.187Z,18.70
2022-09-28T07:33:12.436Z,18.80
2022-09-28T07:35:39.157Z,18.80
2022-09-28T07:38:07.343Z,18.80
2022-09-28T07:40:54.259Z,18.80
2022-09-28T07:43:22.022Z,18.80
2022-09-28T07:45:54.122Z,18.80
2022-09-28T07:48:22.053Z,18.70
2022-09-28T07:50:53.597Z,18.70
2022-09-28T07:53:22.266Z,18.70
2022-09-28T07:55:52.782Z,18.70
2022-09-28T07:58:20.763Z,18.70
2022-09-28T08:00:48.906Z,18.70
2022-09-28T08:03:17.314Z,18.70
2022-09-28T08:05:44.154Z,18.80
2022-09-28T08:08:10.869Z,18.80
2022-09-28T08:10:38.162Z,18.80
2022-09-28T08:13:06.535Z,18.80
2022-09-28T08:15:36.782Z,18.80
2022-09-28T08:18:04.775Z,18.90
2022-09-28T08:20:51.824Z,18.80
2022-09-28T08:23:20.227Z,18.80
2022-09-28T08:25:52.450Z,18.80
2022-09-28T08:28:19.777Z,18.80
2022-09-28T08:30:47.558Z,18.80
2022-09-28T08:33:15.862Z,18.80
2022-09-28T08:35:42.517Z,18.90
2022-09-28T08:38:10.553Z,18.80
2022-09-28T08:41:00.148Z,18.70
2022-09-28T08:43:45.441Z,18.60
2022-09-28T08:46:13.349Z,18.60
2022-09-28T08:49:24.134Z,18.60
2022-09-28T08:52:18.688Z,18.60
2022-09-28T08:55:00.357Z,18.60
2022-09-28T08:57:52.502Z,18.60
2022-09-28T09:00:42.208Z,19.00
2022-09-28T09:03:35.500Z,19.00
2022-09-28T09:06:26.059Z,18.80
2022-09-28T09:09:21.322Z,18.80
2022-09-28T09:12:05.453Z,18.80
2022-09-28T09:14:56.508Z,18.80
2022-09-28T09:17:43.348Z,18.80
2022-09-28T09:20:37.236Z,18.80
2022-09-28T09:23:31.693Z,18.80
2022-09-28T09:26:24.576Z,18.90
2022-09-28T09:29:16.487Z,18.90
2022-09-28T09:32:02.960Z,18.80
2022-09-28T09:34:53.165Z,19.60
2022-09-28T09:37:25.850Z,18.90
2022-09-28T09:40:25.996Z,18.90
2022-09-28T09:43:35.583Z,18.70
2022-09-28T09:46:10.930Z,18.80
2022-09-28T09:49:13.886Z,18.80
2022-09-28T09:51:54.397Z,18.80
2022-09-28T09:54:31.773Z,18.90
2022-09-28T09:57:05.639Z,18.90
2022-09-28T09:59:37.288Z,18.90
2022-09-28T10:02:22.737Z,18.90
2022-09-28T10:04:53.192Z,18.90
2022-09-28T10:07:25.617Z,18.90
2022-09-28T10:09:57.204Z,18.90
2022-09-28T10:12:25.119Z,19.00
2022-09-28T10:14:52.348Z,18.90
2022-09-28T10:17:26.546Z,19.00
2022-09-28T10:19:56.661Z,18.90
2022-09-28T10:22:27.271Z,19.00
2022-09-28T10:24:57.491Z,19.00
2022-09-28T10:27:28.567Z,19.00
2022-09-28T10:30:02.956Z,19.10
2022-09-28T10:32:46.140Z,19.00
2022-09-28T10:35:28.949Z,19.00
2022-09-28T10:37:57.655Z,19.00
2022-09-28T10:40:39.479Z,19.00
2022-09-28T10:43:33.381Z,19.00
2022-09-28T10:46:23.271Z,19.00
2022-09-28T10:48:52.735Z,19.00
2022-09-28T10:51:19.898Z,19.10
2022-09-28T10:54:01.388Z,19.00
2022-09-28T10:56:35.157Z,19.00
2022-09-28T10:59:01.769Z,19.00
2022-09-28T11:01:33.529Z,19.00
2022-09-28T11:04:07.303Z,18.90
2022-09-28T11:06:41.742Z,18.90
2022-09-28T11:09:29.748Z,18.90
2022-09-28T11:11:59.156Z,19.00
2022-09-28T11:14:46.201Z,18.90
2022-09-28T11:17:40.476Z,18.90
2022-09-28T11:20:31.360Z,18.90
2022-09-28T11:23:00.679Z,19.00
2022-09-28T11:25:29.173Z,19.00
2022-09-28T11:27:59.551Z,19.00
2022-09-28T11:30:32.721Z,19.00
2022-09-28T11:33:23.405Z,19.00
2022-09-28T11:36:03.816Z,19.00
2022-09-28T11:39:17.781Z,18.90
2022-09-28T11:41:54.088Z,19.00
2022-09-28T11:44:44.693Z,19.00
2022-09-28T11:47:26.455Z,18.90
2022-09-28T11:50:22.968Z,18.90
2022-09-28T11:53:08.935Z,19.00
2022-09-28T11:55:44.587Z,18.90
2022-09-28T11:58:18.596Z,18.90
2022-09-28T12:00:50.724Z,18.90
2022-09-28T12:03:50.687Z,18.90
2022-09-28T12:06:28.319Z,18.90
2022-09-28T12:09:00.766Z,18.90
2022-09-28T12:11:38.754Z,18.80
2022-09-28T12:14:11.018Z,18.80
2022-09-28T12:17:04.974Z,18.80
2022-09-28T12:19:37.640Z,18.90
2022-09-28T12:22:15.724Z,18.90
2022-09-28T12:24:47.413Z,18.90
2022-09-28T12:27:28.037Z,18.90
2022-09-28T12:29:54.583Z,18.90
2022-09-28T12:32:32.958Z,19.00
2022-09-28T12:34:59.625Z,18.90
2022-09-28T12:37:45.306Z,18.90
2022-09-28T12:40:29.925Z,18.90
2022-09-28T12:42:56.506Z,18.90
2022-09-28T12:45:53.218Z,19.00
2022-09-28T12:48:27.133Z,19.00
2022-09-28T12:51:24.707Z,18.90
2022-09-28T12:54:30.378Z,19.00
2022-09-28T12:57:11.898Z,18.90
2022-09-28T12:59:45.222Z,19.00
2022-09-28T13:02:38.098Z,19.00
2022-09-28T13:05:37.805Z,18.90
2022-09-28T13:08:11.086Z,18.90
2022-09-28T13:10:42.664Z,18.90
2022-09-28T13:13:34.317Z,18.90
2022-09-28T13:16:07.540Z,18.90
2022-09-28T13:18:47.381Z,18.90
2022-09-28T13:21:36.694Z,18.90
2022-09-28T13:24:27.813Z,18.90
2022-09-28T13:26:54.720Z,18.90
2022-09-28T13:29:23.358Z,18.90
2022-09-28T13:31:54.761Z,18.90
2022-09-28T13:34:25.499Z,18.90
2022-09-28T13:37:09.497Z,18.90
2022-09-28T13:39:44.974Z,18.90
2022-09-28T13:42:32.937Z,18.90
2022-09-28T13:45:18.368Z,18.90
2022-09-28T13:48:14.380Z,18.90
2022-09-28T13:51:09.323Z,18.90
2022-09-28T13:53:55.055Z,18.90
2022-09-28T13:56:30.018Z,18.90
2022-09-28T13:59:20.440Z,18.90
2022-09-28T14:01:57.323Z,19.00
2022-09-28T14:04:46.923Z,19.00
2022-09-28T14:07:23.321Z,19.00
2022-09-28T14:10:20.819Z,19.00
2022-09-28T14:12:50.142Z,19.00
2022-09-28T14:15:28.656Z,19.00
2022-09-28T14:18:20.381Z,19.00
2022-09-28T14:21:02.435Z,19.10
2022-09-28T14:23:38.361Z,19.00
2022-09-28T14:26:47.950Z,19.10
2022-09-28T14:29:29.802Z,19.10
2022-09-28T14:31:58.341Z,19.10
2022-09-28T14:34:46.708Z,19.10
2022-09-28T14:37:48.568Z,19.10
2022-09-28T14:40:40.226Z,19.10
2022-09-28T14:43:25.868Z,19.10
2022-09-28T14:46:15.482Z,19.20
2022-09-28T14:48:57.171Z,19.20
2022-09-28T14:51:26.811Z,19.20
2022-09-28T14:54:04.182Z,19.20
2022-09-28T14:56:38.670Z,19.30
2022-09-28T14:59:06.461Z,19.20
2022-09-28T15:01:34.818Z,19.20
2022-09-28T15:04:11.128Z,19.30
2022-09-28T15:06:46.643Z,19.20
2022-09-28T15:09:34.528Z,19.30
2022-09-28T15:12:07.723Z,19.20
2022-09-28T15:14:42.272Z,19.20
2022-09-28T15:17:10.955Z,19.10
2022-09-28T15:20:00.828Z,19.00
2022-09-28T15:22:27.496Z,19.00
2022-09-28T15:24:59.995Z,19.00
2022-09-28T15:27:37.467Z,19.00
2022-09-28T15:30:25.231Z,19.00
2022-09-28T15:32:56.898Z,18.90
2022-09-28T15:35:26.410Z,18.90
2022-09-28T15:37:54.897Z,19.00
2022-09-28T15:40:34.916Z,18.90
2022-09-28T15:43:16.238Z,18.90
2022-09-28T15:45:44.518Z,18.90
2022-09-28T15:48:18.613Z,18.90
2022-09-28T15:51:12.185Z,19.00
2022-09-28T15:53:50.542Z,19.00
2022-09-28T15:56:17.219Z,19.00
2022-09-28T15:58:43.881Z,18.90
2022-09-28T16:01:36.559Z,18.90
2022-09-28T16:04:38.586Z,18.90
2022-09-28T16:07:11.783Z,19.00
2022-09-28T16:09:58.383Z,19.00
2022-09-28T16:12:48.457Z,19.10
2022-09-28T16:15:23.473Z,19.20
2022-09-28T16:17:55.434Z,19.20
2022-09-28T16:20:40.089Z,19.30
2022-09-28T16:23:30.917Z,19.30
2022-09-28T16:26:16.946Z,19.30
2022-09-28T16:28:46.236Z,19.30
2022-09-28T16:31:12.858Z,19.30
2022-09-28T16:33:48.967Z,19.30
2022-09-28T16:36:17.131Z,19.40
2022-09-28T16:38:44.973Z,19.30
2022-09-28T16:41:13.076Z,19.40
2022-09-28T16:43:40.455Z,19.30
2022-09-28T16:46:17.604Z,19.30
2022-09-28T16:48:49.141Z,19.30
2022-09-28T16:51:16.175Z,19.40
2022-09-28T16:54:01.617Z,19.40
2022-09-28T16:56:28.551Z,19.40
2022-09-28T16:58:55.810Z,19.40
2022-09-28T17:01:23.009Z,19.40
2022-09-28T17:03:50.101Z,19.40
2022-09-28T17:06:18.813Z,19.40
2022-09-28T17:08:46.004Z,19.40
2022-09-28T17:11:20.174Z,19.40
2022-09-28T17:13:50.159Z,19.40
2022-09-28T17:16:21.029Z,19.40
2022-09-28T17:18:51.925Z,19.40
2022-09-28T17:21:20.665Z,19.40
2022-09-28T17:23:49.256Z,19.50
2022-09-28T17:26:30.579Z,19.50
2022-09-28T17:29:01.729Z,19.50
2022-09-28T17:31:29.607Z,19.50
2022-09-28T17:33:56.503Z,19.50
2022-09-28T17:36:24.154Z,19.40
2022-09-28T17:38:51.682Z,19.50
2022-09-28T17:41:21.084Z,19.50
2022-09-28T17:43:48.639Z,19.50
2022-09-28T17:46:27.061Z,19.50
2022-09-28T17:48:54.294Z,19.50
2022-09-28T17:51:22.380Z,19.50
2022-09-28T17:53:49.122Z,19.40
2022-09-28T17:56:15.733Z,19.30
2022-09-28T17:58:42.486Z,19.20
2022-09-28T18:01:09.646Z,19.20
2022-09-28T18:03:38.318Z,19.10
2022-09-28T18:06:07.772Z,19.10
2022-09-28T18:08:36.407Z,19.10
2022-09-28T18:11:03.068Z,19.10
2022-09-28T18:13:29.722Z,19.00
2022-09-28T18:15:56.539Z,19.00
2022-09-28T18:18:23.974Z,19.10
2022-09-28T18:20:51.216Z,19.00
2022-09-28T18:23:18.494Z,19.00
2022-09-28T18:25:46.169Z,19.10
2022-09-28T18:28:13.519Z,19.00
2022-09-28T18:30:42.310Z,19.10
2022-09-28T18:33:10.005Z,19.00
2022-09-28T18:35:36.914Z,19.00
2022-09-28T18:38:05.269Z,19.00
2022-09-28T18:40:35.869Z,19.00
2022-09-28T18:43:03.712Z,19.00
2022-09-28T18:45:30.377Z,19.00
2022-09-28T18:47:57.651Z,18.90
2022-09-28T18:50:24.282Z,18.90
2022-09-28T18:52:50.909Z,18.90
2022-09-28T18:55:17.566Z,18.90
2022-09-28T18:57:46.262Z,18.90
2022-09-28T19:00:14.645Z,18.90
2022-09-28T19:02:41.376Z,18.90
2022-09-28T19:05:08.317Z,18.90
2022-09-28T19:07:35.130Z,18.80
2022-09-28T19:10:01.758Z,18.90
2022-09-28T19:12:28.393Z,18.90
2022-09-28T19:14:55.043Z,19.00
2022-09-28T19:17:21.679Z,19.00
2022-09-28T19:19:48.276Z,19.00
2022-09-28T19:22:14.842Z,19.00
2022-09-28T19:24:41.461Z,19.00
2022-09-28T19:27:08.114Z,19.00
2022-09-28T19:29:34.707Z,19.00
2022-09-28T19:32:01.513Z,19.00
2022-09-28T19:34:29.939Z,19.00
2022-09-28T19:36:57.111Z,19.00
2022-09-28T19:39:23.846Z,19.00
2022-09-28T19:41:53.286Z,19.00
2022-09-28T19:44:28.131Z,19.00
2022-09-28T19:47:09.812Z,18.90
2022-09-28T19:49:38.424Z,19.00
2022-09-28T19:52:16.561Z,18.90
2022-09-28T19:54:57.978Z,18.90
2022-09-28T19:57:30.486Z,18.90
2022-09-28T20:00:02.040Z,18.90
2022-09-28T20:02:29.330Z,18.80
2022-09-28T20:04:56.034Z,18.80
2022-09-28T20:07:22.677Z,18.90
2022-09-28T20:09:49.267Z,18.80
2022-09-28T20:12:15.852Z,18.80
2022-09-28T20:14:42.459Z,18.80
2022-09-28T20:17:09.508Z,18.80
2022-09-28T20:19:36.464Z,18.80
2022-09-28T20:22:03.578Z,18.80
2022-09-28T20:24:30.986Z,18.70
2022-09-28T20:26:58.008Z,18.70
2022-09-28T20:29:24.832Z,18.80
2022-09-28T20:31:51.846Z,18.70
2022-09-28T20:34:18.650Z,18.70
2022-09-28T20:36:45.234Z,18.80
2022-09-28T20:39:12.367Z,18.70
2022-09-28T20:41:39.112Z,18.70
2022-09-28T20:44:06.801Z,18.70
2022-09-28T20:46:35.232Z,18.70
2022-09-28T20:49:02.625Z,18.70
2022-09-28T20:51:29.297Z,18.70
2022-09-28T20:53:57.489Z,18.70
2022-09-28T20:56:34.471Z,18.70
2022-09-28T20:59:01.118Z,18.70
2022-09-28T21:01:29.938Z,18.70
2022-09-28T21:03:58.988Z,18.70
2022-09-28T21:06:28.168Z,18.70
2022-09-28T21:08:55.149Z,18.70
2022-09-28T21:11:23.635Z,18.70
2022-09-28T21:13:54.953Z,18.70
2022-09-28T21:16:21.638Z,18.60
2022-09-28T21:18:48.440Z,18.70
2022-09-28T21:21:17.854Z,18.70
2022-09-28T21:23:45.051Z,18.60
2022-09-28T21:26:25.932Z,18.60
2022-09-28T21:28:57.859Z,18.60
2022-09-28T21:31:29.347Z,18.60
2022-09-28T21:33:57.236Z,18.60
2022-09-28T21:36:24.792Z,18.60
2022-09-28T21:38:51.648Z,18.60
2022-09-28T21:41:18.461Z,18.60
2022-09-28T21:43:45.798Z,18.60
2022-09-28T21:46:12.534Z,18.60
2022-09-28T21:48:39.315Z,18.60
2022-09-28T21:51:09.017Z,18.60
2022-09-28T21:53:37.353Z,18.60
2022-09-28T21:56:06.791Z,18.60
2022-09-28T21:58:35.266Z,18.60
2022-09-28T22:01:03.099Z,18.60
2022-09-28T22:03:32.421Z,18.50
2022-09-28T22:05:59.272Z,18.60
2022-09-28T22:08:26.188Z,18.50
2022-09-28T22:11:05.605Z,18.50
2022-09-28T22:13:34.981Z,18.60
2022-09-28T22:16:02.182Z,18.60
2022-09-28T22:18:30.755Z,18.60
2022-09-28T22:21:22.152Z,18.60
2022-09-28T22:23:49.722Z,18.50
2022-09-28T22:26:19.914Z,18.50
2022-09-28T22:28:49.423Z,18.50
2022-09-28T22:31:17.646Z,18.50
2022-09-28T22:33:44.402Z,18.50
2022-09-28T22:36:11.356Z,18.50
2022-09-28T22:38:38.028Z,18.50
2022-09-28T22:41:04.735Z,18.50
2022-09-28T22:43:31.841Z,18.50
2022-09-28T22:46:08.966Z,18.50
2022-09-28T22:48:36.080Z,18.50
2022-09-28T22:51:05.242Z,18.50
2022-09-28T22:53:32.418Z,18.50
2022-09-28T22:56:01.259Z,18.50
2022-09-28T22:58:28.019Z,18.50
2022-09-28T23:00:56.900Z,18.40
2022-09-28T23:03:23.955Z,18.50
2022-09-28T23:05:54.784Z,18.50
2022-09-28T23:08:22.954Z,18.50
2022-09-28T23:10:50.492Z,18.50
2022-09-28T23:13:17.700Z,18.50
2022-09-28T23:15:53.766Z,18.50
2022-09-28T23:18:20.575Z,18.50
2022-09-28T23:20:57.831Z,18.50
2022-09-28T23:23:24.634Z,18.50
2022-09-28T23:25:52.313Z,18.40
2022-09-28T23:28:20.092Z,18.40
2022-09-28T23:30:47.206Z,18.40
2022-09-28T23:33:15.541Z,18.40
2022-09-28T23:35:42.635Z,18.40
2022-09-28T23:38:13.544Z,18.40
2022-09-28T23:40:40.815Z,18.50
2022-09-28T23:43:08.125Z,18.40
2022-09-28T23:45:34.939Z,18.40
2022-09-28T23:48:02.111Z,18.40
2022-09-28T23:50:28.725Z,18.40
2022-09-28T23:52:55.338Z,20.50
2022-09-28T23:55:22.173Z,18.40
2022-09-28T23:57:48.797Z,18.40
